createdAt,value
2019-04-14T00:03:17.296Z,11.44
2019-04-14T00:08:17.739Z,8.88
2019-04-14T00:13:17.571Z,8.01
2019-04-14T00:18:05.433Z,9.28
2019-04-14T00:23:13.039Z,9.25
2019-04-14T00:28:19.307Z,7.61
2019-04-14T00:33:28.156Z,7.20
2019-04-14T00:38:35.373Z,8.64
2019-04-14T00:43:43.901Z,7.83
2019-04-14T00:49:04.867Z,8.64
2019-04-14T00:53:51.555Z,8.69
2019-04-14T00:58:58.863Z,10.96
2019-04-14T01:04:19.135Z,8.57
2019-04-14T01:09:06.441Z,7.35
2019-04-14T01:14:27.689Z,7.43
2019-04-14T01:19:13.913Z,8.61
2019-04-14T01:24:22.729Z,6.46
2019-04-14T01:29:29.670Z,8.79
2019-04-14T01:34:36.907Z,9.11
2019-04-14T01:39:43.534Z,9.12
2019-04-14T01:49:53.009Z,8.11
2019-04-14T01:55:00.426Z,10.04
2019-04-14T02:00:07.545Z,6.21
2019-04-14T02:05:27.766Z,7.94
2019-04-14T02:10:15.104Z,9.76
2019-04-14T02:15:22.260Z,7.84
2019-04-14T02:20:29.651Z,7.63
2019-04-14T02:25:38.227Z,9.69
2019-04-14T02:30:52.321Z,8.92
2019-04-14T02:36:27.529Z,9.89
2019-04-14T02:41:46.786Z,8.55
2019-04-14T02:46:47.703Z,7.54
2019-04-14T02:51:31.009Z,8.85
2019-04-14T02:56:45.473Z,7.38
2019-04-14T03:06:41.179Z,7.72
2019-04-14T03:11:45.999Z,7.14
2019-04-14T03:22:04.872Z,8.17
2019-04-14T03:26:54.602Z,6.78
2019-04-14T03:32:23.326Z,8.94
2019-04-14T03:37:39.618Z,7.45
2019-04-14T03:42:28.714Z,9.82
2019-04-14T03:47:31.482Z,8.76
2019-04-14T03:52:56.137Z,9.57
2019-04-14T03:57:15.383Z,9.81
2019-04-14T04:02:24.497Z,7.70
2019-04-14T04:07:32.188Z,10.16
2019-04-14T04:12:38.225Z,8.37
2019-04-14T04:18:00.288Z,7.84
2019-04-14T04:22:47.615Z,7.00
2019-04-14T04:27:54.746Z,7.51
2019-04-14T04:33:02.321Z,8.46
2019-04-14T04:38:09.561Z,8.84
2019-04-14T04:43:31.909Z,9.80
2019-04-14T04:48:19.664Z,12.97
2019-04-14T04:53:26.658Z,13.78
2019-04-14T04:58:33.411Z,14.38
2019-04-14T05:03:54.379Z,14.19
2019-04-14T05:08:43.476Z,14.99
2019-04-14T05:13:51.198Z,14.13
2019-04-14T05:19:11.441Z,16.17
2019-04-14T05:24:04.967Z,14.05
2019-04-14T05:29:12.435Z,13.01
2019-04-14T05:34:19.433Z,14.83
2019-04-14T05:39:26.595Z,14.52
2019-04-14T05:44:34.696Z,12.45
2019-04-14T05:49:57.513Z,11.63
2019-04-14T05:54:43.316Z,11.43
2019-04-14T05:59:52.666Z,9.33
2019-04-14T06:04:59.327Z,12.34
2019-04-14T06:10:06.170Z,11.73
2019-04-14T06:15:13.427Z,12.75
2019-04-14T06:20:20.642Z,12.25
2019-04-14T06:25:28.901Z,11.06
2019-04-14T06:30:36.203Z,12.02
2019-04-14T06:35:43.471Z,13.39
2019-04-14T06:41:03.909Z,12.86
2019-04-14T06:45:50.983Z,14.76
2019-04-14T06:51:12.425Z,11.93
2019-04-14T06:56:13.367Z,11.39
2019-04-14T07:01:01.778Z,8.85
2019-04-14T07:06:08.961Z,8.95
2019-04-14T07:11:17.379Z,11.48
2019-04-14T07:16:37.451Z,11.01
2019-04-14T07:21:37.911Z,10.70
2019-04-14T07:26:25.186Z,10.83
2019-04-14T07:31:46.674Z,10.05
2019-04-14T07:36:47.947Z,10.71
2019-04-14T07:41:34.678Z,9.16
2019-04-14T07:46:54.770Z,7.83
2019-04-14T07:51:42.246Z,8.02
2019-04-14T07:56:49.320Z,8.85
2019-04-14T08:01:56.496Z,9.87
2019-04-14T08:07:04.576Z,8.17
2019-04-14T08:12:26.203Z,8.10
2019-04-14T08:17:13.469Z,7.74
2019-04-14T08:27:21.691Z,7.32
2019-04-14T08:32:41.955Z,7.39
2019-04-14T08:37:41.919Z,7.40
2019-04-14T08:42:43.142Z,10.28
2019-04-14T08:52:47.021Z,9.19
2019-04-14T08:57:47.279Z,8.74
2019-04-14T09:02:47.539Z,6.69
2019-04-14T09:12:51.317Z,6.27
2019-04-14T09:17:38.414Z,6.63
2019-04-14T09:22:46.714Z,7.25
2019-04-14T09:32:54.727Z,8.02
2019-04-14T09:38:02.895Z,7.58
2019-04-14T09:43:10.217Z,6.57
2019-04-14T09:48:30.362Z,7.89
2019-04-14T09:53:17.882Z,8.27
2019-04-14T10:03:26.064Z,6.50
2019-04-14T10:13:37.049Z,7.27
2019-04-14T10:18:44.295Z,6.22
2019-04-14T10:23:51.689Z,6.87
2019-04-14T10:28:58.917Z,6.34
2019-04-14T10:34:19.782Z,7.59
2019-04-14T10:39:20.735Z,5.31
2019-04-14T10:44:21.188Z,7.17
2019-04-14T10:49:21.221Z,5.77
2019-04-14T10:54:09.744Z,6.17
2019-04-14T10:59:16.883Z,7.90
2019-04-14T11:04:25.457Z,9.26
2019-04-14T11:09:45.434Z,6.13
2019-04-14T11:14:46.712Z,5.47
2019-04-14T11:19:47.823Z,6.83
2019-04-14T11:24:35.068Z,8.23
2019-04-14T11:29:43.262Z,7.00
2019-04-14T11:35:03.664Z,5.37
2019-04-14T11:39:51.393Z,6.03
2019-04-14T11:44:58.958Z,8.43
2019-04-14T11:50:06.398Z,4.86
2019-04-14T11:55:13.711Z,5.16
2019-04-14T12:00:21.146Z,5.88
2019-04-14T12:05:48.016Z,7.16
2019-04-14T12:10:34.288Z,6.49
2019-04-14T12:15:42.042Z,5.92
2019-04-14T12:20:50.744Z,4.86
2019-04-14T12:26:12.104Z,5.62
2019-04-14T12:30:59.794Z,6.62
2019-04-14T12:36:19.607Z,4.85
2019-04-14T12:41:06.826Z,4.52
2019-04-14T12:46:14.040Z,4.13
2019-04-14T12:51:22.221Z,4.61
2019-04-14T12:56:43.586Z,7.43
2019-04-14T13:01:29.838Z,6.24
2019-04-14T13:06:37.148Z,4.51
2019-04-14T13:11:45.307Z,7.35
2019-04-14T13:16:52.682Z,6.70
2019-04-14T13:21:59.777Z,6.14
2019-04-14T13:27:07.325Z,6.68
2019-04-14T13:32:15.519Z,6.67
2019-04-14T13:37:22.826Z,5.38
2019-04-14T13:42:30.938Z,4.68
2019-04-14T13:47:39.092Z,5.48
2019-04-14T13:52:47.519Z,5.89
2019-04-14T13:57:54.443Z,4.26
2019-04-14T14:03:02.541Z,4.83
2019-04-14T14:08:14.759Z,4.19
2019-04-14T14:13:11.821Z,4.43
2019-04-14T14:18:20.252Z,5.13
2019-04-14T14:23:27.984Z,6.60
2019-04-14T14:28:35.087Z,5.96
2019-04-14T14:33:42.185Z,7.75
2019-04-14T14:38:50.693Z,6.46
2019-04-14T14:43:57.896Z,5.64
2019-04-14T14:49:06.077Z,5.14
2019-04-14T14:54:14.232Z,6.14
2019-04-14T14:59:21.478Z,6.56
2019-04-14T15:04:42.523Z,5.32
2019-04-14T15:09:43.938Z,7.44
2019-04-14T15:19:34.795Z,7.35
2019-04-14T15:24:43.108Z,7.23
2019-04-14T15:29:50.495Z,8.37
2019-04-14T15:34:57.617Z,7.11
2019-04-14T15:40:06.136Z,4.12
2019-04-14T15:45:14.142Z,5.84
2019-04-14T15:50:20.693Z,5.97
2019-04-14T15:55:28.899Z,5.78
2019-04-14T16:00:36.269Z,6.27
2019-04-14T16:05:57.211Z,8.40
2019-04-14T16:10:45.518Z,4.58
2019-04-14T16:15:53.682Z,4.71
2019-04-14T16:21:00.892Z,3.70
2019-04-14T16:26:21.896Z,3.36
2019-04-14T16:31:23.161Z,3.44
2019-04-14T16:36:11.913Z,6.22
2019-04-14T16:41:20.278Z,7.03
2019-04-14T16:51:40.675Z,6.82
2019-04-14T16:56:28.055Z,4.62
2019-04-14T17:01:48.334Z,5.23
2019-04-14T17:06:48.311Z,5.76
2019-04-14T17:11:49.661Z,5.51
2019-04-14T17:16:49.726Z,4.84
2019-04-14T17:21:51.219Z,5.08
2019-04-14T17:26:41.392Z,5.17
2019-04-14T17:31:45.778Z,5.53
2019-04-14T17:37:05.745Z,6.03
2019-04-14T17:41:54.003Z,4.66
2019-04-14T17:47:15.149Z,4.22
2019-04-14T17:52:02.397Z,5.39
2019-04-14T17:57:10.586Z,4.08
2019-04-14T18:02:30.846Z,4.98
2019-04-14T18:07:30.996Z,5.31
2019-04-14T18:12:18.306Z,9.30
2019-04-14T18:22:29.255Z,5.73
2019-04-14T18:27:49.373Z,6.08
2019-04-14T18:32:36.734Z,6.47
2019-04-14T18:37:56.690Z,7.20
2019-04-14T18:42:45.041Z,5.94
2019-04-14T18:47:52.285Z,7.29
2019-04-14T18:53:12.406Z,6.95
2019-04-14T18:58:00.678Z,6.00
2019-04-14T19:03:20.903Z,5.78
2019-04-14T19:08:08.180Z,8.68
2019-04-14T19:13:18.205Z,7.21
2019-04-14T19:18:15.499Z,5.90
2019-04-14T19:23:22.827Z,5.21
2019-04-14T19:28:29.985Z,6.17
2019-04-14T19:33:51.517Z,6.91
2019-04-14T19:38:38.626Z,7.25
2019-04-14T19:43:46.974Z,5.66
2019-04-14T19:48:54.227Z,8.69
2019-04-14T19:59:15.247Z,7.25
2019-04-14T20:04:15.550Z,7.88
2019-04-14T20:09:02.675Z,6.35
2019-04-14T20:14:10.289Z,8.75
2019-04-14T20:19:17.521Z,8.75
2019-04-14T20:24:24.881Z,6.35
2019-04-14T20:29:32.080Z,9.77
2019-04-14T20:34:39.597Z,10.27
2019-04-14T20:39:46.754Z,9.20
2019-04-14T20:45:07.987Z,9.73
2019-04-14T20:49:56.086Z,12.33
2019-04-14T20:55:04.333Z,11.98
2019-04-14T21:00:12.411Z,11.52
2019-04-14T21:05:20.873Z,16.08
2019-04-14T21:10:40.942Z,15.97
2019-04-14T21:15:28.965Z,15.56
2019-04-14T21:20:37.077Z,15.96
2019-04-14T21:26:00.886Z,14.51
2019-04-14T21:30:58.528Z,13.89
2019-04-14T21:35:45.928Z,12.25
2019-04-14T21:40:53.086Z,14.82
2019-04-14T21:46:01.409Z,13.14
2019-04-14T21:51:08.663Z,14.49
2019-04-14T21:56:16.093Z,12.58
2019-04-14T22:01:24.335Z,13.61
2019-04-14T22:06:44.566Z,14.46
2019-04-14T22:11:44.537Z,15.58
2019-04-14T22:16:46.034Z,16.12
2019-04-14T22:21:47.461Z,16.74
2019-04-14T22:26:34.159Z,16.35
2019-04-14T22:31:41.265Z,15.86
2019-04-14T22:37:02.680Z,15.80
2019-04-14T22:41:49.939Z,17.01
2019-04-14T22:47:10.193Z,16.84
2019-04-14T22:51:57.469Z,18.10
2019-04-14T22:57:17.651Z,18.02
2019-04-14T23:02:18.704Z,18.19
2019-04-14T23:07:07.111Z,21.65
2019-04-14T23:12:27.122Z,19.35
2019-04-14T23:17:28.368Z,21.19
2019-04-14T23:22:28.990Z,25.87
2019-04-14T23:27:29.312Z,22.45
2019-04-14T23:32:16.446Z,23.48
2019-04-14T23:37:24.631Z,26.96
2019-04-14T23:42:32.803Z,27.89
2019-04-14T23:47:53.997Z,27.83
2019-04-14T23:52:42.209Z,26.69
2019-04-14T23:57:49.530Z,28.76
